Time;durP1;ratioP1;P1;durP2;ratioP2;P2;SDS_P1;SDS_P2;PMS_P1;PMS_P2;Temp;Humidity;BMP_temperature;BMP_pressure;BME280_temperature;BME280_humidity;BME280_pressure;Samples;Min_cycle;Max_cycle;Signal;HPM_P1;HPM_P2
2023/01/18 00:00:45;;;;;;;2.55;1.02;;;;;;;13.41;57.64;92923.34;5061240;28;20211;-87
2023/01/18 00:03:14;;;;;;;1.45;0.40;;;;;;;13.46;57.02;92952.91;5062434;28;20905;-82
2023/01/18 00:05:43;;;;;;;1.35;0.35;;;;;;;13.63;56.30;92912.50;5061841;28;20211;-85
2023/01/18 00:08:11;;;;;;;0.77;0.50;;;;;;;13.68;56.26;92920.25;5062283;28;20273;-80
2023/01/18 00:10:39;;;;;;;5.38;0.70;;;;;;;13.75;56.14;92909.41;5049230;28;20214;-88
2023/01/18 00:13:06;;;;;;;3.28;0.68;;;;;;;13.69;56.40;92883.72;5061370;28;20254;-84
2023/01/18 00:15:36;;;;;;;1.05;0.50;;;;;;;13.59;57.15;92885.28;5048834;28;20242;-85
2023/01/18 00:18:02;;;;;;;2.53;0.90;;;;;;;13.59;56.57;92907.06;5058143;28;20225;-82
2023/01/18 00:20:31;;;;;;;0.85;0.70;;;;;;;13.63;56.66;92920.66;5056651;28;20600;-80
2023/01/18 00:23:00;;;;;;;2.88;0.60;;;;;;;13.60;57.09;92869.75;5060551;28;20229;-84
2023/01/18 00:25:27;;;;;;;6.60;1.30;;;;;;;13.54;57.12;92872.06;5063314;28;20211;-81
2023/01/18 00:27:55;;;;;;;0.82;0.60;;;;;;;13.62;57.06;92851.09;5050837;28;20211;-82
2023/01/18 00:30:24;;;;;;;3.03;1.00;;;;;;;13.60;57.11;92840.59;5055531;28;20207;-83
2023/01/18 00:32:54;;;;;;;0.50;0.50;;;;;;;13.56;57.26;92869.75;5063516;28;20235;-84
2023/01/18 00:35:22;;;;;;;2.83;0.80;;;;;;;13.56;57.46;92875.19;5065611;28;20207;-82
2023/01/18 00:37:51;;;;;;;2.15;0.68;;;;;;;13.59;56.94;92857.31;5063083;28;20210;-85
2023/01/18 00:40:20;;;;;;;1.90;1.08;;;;;;;13.60;57.29;92858.88;5058718;28;20670;-80
2023/01/18 00:45:45;;;;;;;1.63;0.75;;;;;;;13.57;57.15;92851.47;5039203;28;20417;-81
2023/01/18 00:48:12;;;;;;;0.45;0.45;;;;;;;13.53;57.60;92827.75;5031805;28;20215;-83
2023/01/18 00:50:39;;;;;;;2.28;0.55;;;;;;;13.41;58.18;92912.47;5021210;28;20262;-89
2023/01/18 00:53:07;;;;;;;2.13;0.80;;;;;;;13.50;57.31;92876.75;5062505;28;20227;-84
2023/01/18 00:55:34;;;;;;;2.70;0.70;;;;;;;13.56;57.07;92863.53;5064798;28;20207;-79
2023/01/18 00:58:01;;;;;;;1.80;0.50;;;;;;;13.55;57.35;92894.59;5061127;28;20211;-79
2023/01/18 01:00:27;;;;;;;2.88;0.60;;;;;;;13.60;56.92;92903.16;5062285;28;20249;-81
2023/01/18 01:02:55;;;;;;;0.40;0.40;;;;;;;13.54;57.27;92926.47;5059027;28;20230;-83
2023/01/18 01:08:15;;;;;;;2.78;0.60;;;;;;;13.66;56.81;92928.06;5064246;28;20337;-83
2023/01/18 01:10:43;;;;;;;0.40;0.40;;;;;;;13.62;57.14;92916.38;5066664;28;20207;-87
2023/01/18 01:26:51;;;;;;;0.55;0.40;;;;;;;13.58;58.04;92850.31;5057280;28;20278;-78
2023/01/18 01:29:18;;;;;;;0.90;0.50;;;;;;;13.54;57.80;92866.63;5064925;28;20214;-90
2023/01/18 01:31:45;;;;;;;2.92;0.93;;;;;;;13.46;57.98;92875.97;5077115;28;20191;-82
2023/01/18 01:34:12;;;;;;;2.53;0.45;;;;;;;13.45;58.27;92886.06;5070461;28;20272;-79
2023/01/18 01:36:39;;;;;;;0.98;0.50;;;;;;;13.45;58.21;92886.06;5072598;28;20206;-79
2023/01/18 01:39:09;;;;;;;0.40;0.40;;;;;;;13.49;57.84;92872.47;5052549;28;20223;-83
2023/01/18 01:41:37;;;;;;;0.60;0.40;;;;;;;13.38;57.73;92864.31;5064978;28;20206;-83
2023/01/18 01:44:53;;;;;;;1.98;0.80;;;;;;;13.52;57.77;92864.31;5060721;28;20258;-83
2023/01/18 01:47:34;;;;;;;1.55;0.70;;;;;;;13.55;57.47;92861.97;5008823;28;20279;-84
2023/01/18 01:50:09;;;;;;;1.92;0.65;;;;;;;13.50;57.61;92899.28;5035884;28;20208;-84
2023/01/18 01:52:39;;;;;;;3.20;0.70;;;;;;;13.64;56.47;92886.84;5064876;28;20238;-80
2023/01/18 01:55:15;;;;;;;3.22;0.70;;;;;;;13.80;55.95;92844.44;5056570;28;20210;-84
2023/01/18 01:57:48;;;;;;;2.25;0.40;;;;;;;13.79;56.41;92866.63;5072048;28;20302;-85
2023/01/18 02:00:18;;;;;;;4.15;0.50;;;;;;;13.73;56.10;92868.19;5061626;28;20211;-85
2023/01/18 02:02:48;;;;;;;1.80;0.63;;;;;;;13.73;56.58;92858.09;5063546;28;20255;-83
2023/01/18 02:05:17;;;;;;;1.45;0.63;;;;;;;13.63;56.89;92863.53;5061030;28;20211;-85
2023/01/18 02:07:44;;;;;;;0.85;0.60;;;;;;;13.59;56.96;92862.75;5057869;28;20207;-85
2023/01/18 02:10:13;;;;;;;2.53;0.60;;;;;;;13.56;56.97;92852.63;5059861;28;20203;-85
2023/01/18 02:12:42;;;;;;;1.15;0.55;;;;;;;13.60;56.75;92858.88;5063828;28;20231;-91
2023/01/18 02:15:10;;;;;;;1.20;0.50;;;;;;;13.61;56.85;92849.53;5062022;28;20720;-83
2023/01/18 02:17:56;;;;;;;1.33;0.50;;;;;;;13.65;56.84;92866.66;5056588;28;20468;-84
2023/01/18 02:20:59;;;;;;;1.10;0.60;;;;;;;13.62;56.79;92854.59;5056394;28;20203;-86
2023/01/18 02:24:08;;;;;;;1.70;0.68;;;;;;;13.63;56.86;92860.81;5058032;28;20210;-84
2023/01/18 02:26:52;;;;;;;2.22;0.77;;;;;;;13.59;57.11;92868.97;5028616;28;20636;-82
2023/01/18 02:29:27;;;;;;;3.33;0.80;;;;;;;13.69;56.46;92881.00;5045513;28;20199;-83
2023/01/18 02:32:10;;;;;;;4.80;0.90;;;;;;;13.68;56.40;92893.06;5036921;28;20324;-91
2023/01/18 02:34:40;;;;;;;2.53;1.23;;;;;;;13.67;56.06;92875.94;5029605;28;20219;-82
2023/01/18 02:37:16;;;;;;;1.17;0.50;;;;;;;13.64;56.64;92881.41;5062405;28;20757;-81
2023/01/18 02:39:55;;;;;;;2.35;0.88;;;;;;;13.77;56.00;92928.84;5063597;28;20191;-82
2023/01/18 02:48:04;;;;;;;2.20;0.73;;;;;;;13.70;56.24;92940.47;5068394;28;20210;-88
2023/01/18 02:50:31;;;;;;;1.00;0.70;;;;;;;13.76;56.11;92938.16;5047031;28;20203;-84
2023/01/18 02:52:58;;;;;;;2.60;0.75;;;;;;;13.63;56.84;92939.72;5063213;28;20230;-90
2023/01/18 02:55:34;;;;;;;5.70;0.80;;;;;;;13.63;56.59;92934.28;5058763;28;20203;-82
2023/01/18 02:58:11;;;;;;;3.00;1.02;;;;;;;13.71;56.26;92946.69;5065686;28;20194;-79
2023/01/18 03:00:47;;;;;;;2.92;1.25;;;;;;;13.70;56.31;92956.81;5058470;28;20203;-83
2023/01/18 03:03:17;;;;;;;6.32;0.85;;;;;;;13.59;56.30;92941.66;5050885;28;20231;-88
2023/01/18 03:05:47;;;;;;;1.02;0.47;;;;;;;13.57;56.43;92931.16;5063562;28;20202;-83
2023/01/18 03:08:18;;;;;;;2.22;0.80;;;;;;;13.61;56.57;92914.84;5057398;28;20210;-85
2023/01/18 03:10:56;;;;;;;1.27;0.60;;;;;;;13.55;56.66;92921.81;5056950;28;20208;-86
2023/01/18 03:13:28;;;;;;;3.08;1.10;;;;;;;13.62;55.97;92883.75;5060545;28;20322;-83
2023/01/18 03:16:05;;;;;;;3.65;0.80;;;;;;;13.70;55.52;92898.88;5053106;28;20223;-79
2023/01/18 03:18:58;;;;;;;3.75;1.23;;;;;;;13.72;55.71;92888.41;5056803;28;20214;-84
2023/01/18 03:21:30;;;;;;;1.73;0.70;;;;;;;13.67;55.50;92891.50;5060262;28;20237;-82
2023/01/18 03:23:59;;;;;;;1.15;0.68;;;;;;;13.60;56.00;92891.50;5058147;28;20222;-82
2023/01/18 03:26:28;;;;;;;3.03;0.63;;;;;;;13.55;56.01;92883.72;5061295;28;20195;-83
2023/01/18 03:34:36;;;;;;;2.58;0.60;;;;;;;13.81;55.18;92886.81;5062042;28;20234;-81
2023/01/18 03:37:06;;;;;;;3.17;0.80;;;;;;;13.84;54.92;92886.06;5065026;28;20226;-84
2023/01/18 03:39:39;;;;;;;1.80;0.60;;;;;;;13.80;54.93;92868.94;5052317;28;20486;-86
2023/01/18 03:42:11;;;;;;;5.78;0.63;;;;;;;13.74;55.12;92858.84;5079381;28;20203;-82
2023/01/18 03:44:42;;;;;;;1.45;0.55;;;;;;;13.70;55.63;92860.78;5069772;28;20229;-77
2023/01/18 03:47:10;;;;;;;3.03;0.75;;;;;;;13.74;55.72;92880.63;5076574;28;20195;-87
2023/01/18 03:49:37;;;;;;;1.65;0.60;;;;;;;13.80;55.19;92868.19;5057176;28;20199;-82
2023/01/18 03:52:16;;;;;;;2.35;0.52;;;;;;;13.74;55.03;92854.19;5041464;28;20204;-86
2023/01/18 03:54:52;;;;;;;1.02;0.43;;;;;;;13.70;55.17;92867.00;5068591;28;20709;-79
2023/01/18 03:57:24;;;;;;;1.42;0.60;;;;;;;13.82;54.68;92860.38;5070312;28;20622;-80
2023/01/18 03:59:51;;;;;;;4.13;0.70;;;;;;;13.79;54.98;92855.75;5063668;28;20200;-83
2023/01/18 04:02:21;;;;;;;0.70;0.60;;;;;;;13.81;54.31;92864.28;5062243;28;20249;-84
2023/01/18 04:04:47;;;;;;;5.10;1.52;;;;;;;13.73;55.16;92852.63;5056395;28;20548;-85
2023/01/18 04:07:14;;;;;;;4.28;0.50;;;;;;;13.81;54.46;92837.06;5066128;28;20628;-83
2023/01/18 04:09:41;;;;;;;2.17;0.65;;;;;;;13.84;54.10;92891.50;5059888;28;20206;-83
2023/01/18 04:12:11;;;;;;;1.30;0.65;;;;;;;13.95;53.68;92864.25;5059929;28;20212;-80
2023/01/18 04:14:38;;;;;;;5.80;0.80;;;;;;;13.89;54.62;92882.16;5066638;28;20286;-81
2023/01/18 04:17:05;;;;;;;1.50;0.73;;;;;;;13.71;55.18;92859.63;5042671;28;20629;-86
2023/01/18 04:19:33;;;;;;;1.38;0.63;;;;;;;13.53;56.08;92871.28;5069157;28;20200;-81
2023/01/18 04:22:00;;;;;;;4.05;1.00;;;;;;;13.65;54.96;92855.75;5067091;28;20304;-85
2023/01/18 04:24:28;;;;;;;3.00;0.80;;;;;;;13.69;55.05;92857.28;5053367;28;20216;-86
2023/01/18 04:26:56;;;;;;;6.10;0.90;;;;;;;13.87;53.92;92808.28;5066318;28;20206;-86
2023/01/18 04:29:23;;;;;;;5.03;1.10;;;;;;;13.88;53.89;92804.41;5052486;28;20288;-85
2023/01/18 04:31:50;;;;;;;9.73;1.00;;;;;;;13.82;54.29;92835.91;5040490;28;20695;-82
2023/01/18 04:34:19;;;;;;;2.58;0.88;;;;;;;13.89;54.13;92863.13;5053050;28;20228;-89
2023/01/18 04:36:47;;;;;;;3.10;0.98;;;;;;;13.87;54.15;92838.22;5066076;28;20238;-81
2023/01/18 04:39:14;;;;;;;3.78;1.27;;;;;;;13.95;54.09;92842.47;5060700;28;20206;-82
2023/01/18 04:41:41;;;;;;;4.68;1.00;;;;;;;13.90;54.17;92870.13;5071608;28;20203;-83
2023/01/18 04:44:09;;;;;;;2.00;0.85;;;;;;;13.84;54.37;92852.63;5061325;28;20227;-84
2023/01/18 04:46:37;;;;;;;6.05;1.10;;;;;;;13.76;54.56;92829.31;5058477;28;20203;-86
2023/01/18 04:49:04;;;;;;;6.25;1.35;;;;;;;13.79;54.60;92847.59;5052628;28;20295;-85
2023/01/18 04:51:31;;;;;;;4.82;1.33;;;;;;;13.86;54.48;92839.41;5053236;28;20792;-83
2023/01/18 04:54:00;;;;;;;3.17;1.05;;;;;;;13.94;54.13;92857.25;5053613;28;20227;-82
2023/01/18 04:56:27;;;;;;;4.03;0.75;;;;;;;14.02;53.58;92820.69;5071921;28;20210;-86
2023/01/18 04:58:55;;;;;;;1.42;0.50;;;;;;;13.98;54.05;92825.38;5074570;28;20203;-83
2023/01/18 05:01:23;;;;;;;1.05;0.60;;;;;;;13.97;53.98;92823.81;5055134;28;20207;-85
2023/01/18 05:03:50;;;;;;;7.25;0.93;;;;;;;13.85;54.27;92843.28;5064882;28;20253;-86
2023/01/18 05:06:18;;;;;;;1.95;0.90;;;;;;;13.90;54.45;92851.06;5067482;28;20202;-86
2023/01/18 05:08:45;;;;;;;1.95;0.75;;;;;;;14.00;53.47;92831.19;5063994;28;20198;-84
2023/01/18 05:11:16;;;;;;;18.20;2.75;;;;;;;14.08;53.95;92789.16;5052342;28;20211;-83
2023/01/18 05:13:43;;;;;;;6.90;1.10;;;;;;;14.06;53.44;92818.75;5064836;28;20231;-85
2023/01/18 05:16:15;;;;;;;4.05;0.85;;;;;;;14.10;53.14;92832.34;5058295;28;20661;-88
2023/01/18 05:18:42;;;;;;;2.40;0.85;;;;;;;14.06;53.75;92809.81;5058308;28;20212;-84
2023/01/18 05:21:09;;;;;;;4.97;1.00;;;;;;;14.01;53.71;92808.25;5057165;28;20197;-80
2023/01/18 05:23:35;;;;;;;4.93;1.15;;;;;;;14.07;53.41;92806.69;5046836;28;20207;-79
2023/01/18 05:26:03;;;;;;;13.82;1.77;;;;;;;14.12;53.44;92803.56;5070090;28;20206;-78
2023/01/18 05:28:31;;;;;;;0.82;0.57;;;;;;;14.13;53.42;92816.00;5056603;28;20203;-79
2023/01/18 05:30:58;;;;;;;5.03;0.93;;;;;;;14.06;53.76;92837.81;5059997;28;20207;-77
2023/01/18 05:33:25;;;;;;;5.93;1.08;;;;;;;14.19;52.77;92841.66;5045639;28;20330;-81
2023/01/18 05:35:54;;;;;;;4.43;0.90;;;;;;;14.22;53.35;92813.63;5047903;28;20199;-80
2023/01/18 05:38:22;;;;;;;2.88;1.05;;;;;;;14.23;52.74;92820.63;5053174;28;20705;-80
2023/01/18 05:40:52;;;;;;;2.78;0.63;;;;;;;14.17;53.15;92876.69;5062188;28;20211;-80
2023/01/18 05:43:19;;;;;;;1.05;0.60;;;;;;;14.17;53.58;92854.13;5051231;28;20247;-79
2023/01/18 05:45:47;;;;;;;3.50;0.70;;;;;;;14.17;53.28;92854.88;5050155;28;20207;-79
2023/01/18 05:48:15;;;;;;;2.50;0.73;;;;;;;14.27;52.33;92836.19;5057242;28;20207;-79
2023/01/18 05:50:43;;;;;;;1.67;0.80;;;;;;;14.21;52.74;92882.88;5052648;28;20223;-81
2023/01/18 05:53:13;;;;;;;4.53;0.65;;;;;;;14.35;51.92;92875.84;5049579;28;20212;-79
2023/01/18 05:55:40;;;;;;;4.03;0.90;;;;;;;14.38;52.81;92902.28;5043333;28;20199;-78
2023/01/18 05:58:07;;;;;;;5.15;1.20;;;;;;;14.38;52.84;92864.16;5049892;28;20590;-77
2023/01/18 06:00:35;;;;;;;2.75;0.80;;;;;;;14.43;51.98;92893.75;5050294;28;20203;-82
2023/01/18 06:03:03;;;;;;;6.93;1.42;;;;;;;14.37;52.39;92906.19;5049974;28;20622;-80
2023/01/18 06:05:30;;;;;;;1.92;0.63;;;;;;;14.38;52.40;92885.94;5048991;28;20196;-81
2023/01/18 06:07:57;;;;;;;4.95;1.10;;;;;;;14.33;52.77;92916.31;5054922;28;20214;-77
2023/01/18 06:10:24;;;;;;;3.42;0.82;;;;;;;14.28;53.20;92873.91;5056431;28;20211;-78
2023/01/18 06:12:51;;;;;;;6.10;0.90;;;;;;;14.35;53.02;92897.66;5055196;28;20202;-83
2023/01/18 06:15:18;;;;;;;7.50;1.52;;;;;;;14.30;53.35;92878.97;5054656;28;20235;-78
2023/01/18 06:17:46;;;;;;;3.83;1.52;;;;;;;14.28;53.08;92886.75;5055843;28;20206;-81
2023/01/18 06:20:14;;;;;;;4.70;0.93;;;;;;;14.28;53.20;92894.94;5056832;28;20200;-81
2023/01/18 06:22:44;;;;;;;6.55;1.00;;;;;;;14.21;54.12;92888.31;5055750;28;20203;-78
2023/01/18 06:25:11;;;;;;;2.78;0.63;;;;;;;14.25;53.44;92880.16;5055023;28;20302;-78
2023/01/18 06:27:39;;;;;;;1.27;0.70;;;;;;;14.48;53.35;92909.69;5056191;28;20211;-80
2023/01/18 06:30:09;;;;;;;11.50;1.33;;;;;;;14.55;53.65;92923.28;5056122;28;20204;-78
2023/01/18 06:32:36;;;;;;;5.03;1.00;;;;;;;14.76;52.93;92901.41;5062850;28;20199;-81
2023/01/18 06:35:04;;;;;;;2.30;0.70;;;;;;;14.79;52.49;92916.19;5054630;28;20235;-77
2023/01/18 06:37:32;;;;;;;3.72;0.70;;;;;;;14.75;52.89;92877.28;5058668;28;20210;-80
2023/01/18 06:39:59;;;;;;;6.20;1.10;;;;;;;14.65;53.90;92927.16;5055180;28;20586;-82
2023/01/18 06:42:26;;;;;;;2.53;1.00;;;;;;;14.56;54.36;92875.81;5061408;28;20223;-81
2023/01/18 06:44:52;;;;;;;3.75;0.90;;;;;;;14.53;54.25;92925.63;5055533;28;20196;-80
2023/01/18 06:47:19;;;;;;;3.03;1.15;;;;;;;14.45;54.75;92913.22;5048972;28;20568;-79
2023/01/18 06:49:47;;;;;;;2.53;1.50;;;;;;;14.40;54.81;92899.97;5046878;28;20208;-82
2023/01/18 06:52:14;;;;;;;1.77;0.85;;;;;;;14.41;54.63;92872.34;5058191;28;20238;-77
2023/01/18 06:54:44;;;;;;;6.57;1.17;;;;;;;14.41;54.93;92875.06;5054477;28;20227;-86
2023/01/18 06:57:11;;;;;;;3.28;0.82;;;;;;;14.37;55.07;92892.56;5061440;28;20544;-81
2023/01/18 06:59:39;;;;;;;4.10;1.02;;;;;;;14.39;54.57;92876.59;5065610;28;20291;-78
2023/01/18 07:02:06;;;;;;;4.10;1.60;;;;;;;14.39;55.09;92871.16;5059391;28;20213;-85
2023/01/18 07:04:36;;;;;;;11.88;1.65;;;;;;;14.46;54.54;92849.38;5049568;28;20210;-78
2023/01/18 07:07:03;;;;;;;9.73;1.10;;;;;;;14.51;54.20;92851.69;5060700;28;20214;-84
2023/01/18 07:09:30;;;;;;;4.03;0.88;;;;;;;14.58;53.93;92841.53;5055790;28;20206;-78
2023/01/18 07:11:58;;;;;;;6.53;1.23;;;;;;;14.64;53.52;92866.41;5057860;28;20203;-81
2023/01/18 07:14:25;;;;;;;7.07;1.00;;;;;;;14.67;53.55;92865.63;5060744;28;20281;-82
2023/01/18 07:16:52;;;;;;;6.45;0.95;;;;;;;14.75;53.37;92878.06;5048453;28;20196;-82
2023/01/18 07:19:19;;;;;;;1.30;0.60;;;;;;;14.79;53.11;92870.63;5053536;28;20203;-79
2023/01/18 07:21:45;;;;;;;2.45;1.02;;;;;;;14.86;53.05;92864.38;5056540;28;20298;-83
2023/01/18 07:24:13;;;;;;;5.65;0.90;;;;;;;14.83;53.21;92868.66;5062165;28;20621;-81
2023/01/18 07:26:40;;;;;;;4.72;1.38;;;;;;;14.84;52.80;92832.06;5047590;28;20200;-81
2023/01/18 07:29:08;;;;;;;4.82;0.80;;;;;;;14.91;52.62;92840.19;5062349;28;20610;-78
2023/01/18 07:31:37;;;;;;;5.50;0.68;;;;;;;14.99;52.39;92831.97;5060625;28;20194;-81
2023/01/18 07:34:04;;;;;;;3.88;0.80;;;;;;;14.99;52.51;92821.06;5049273;28;20278;-79
2023/01/18 07:36:30;;;;;;;3.65;0.95;;;;;;;15.06;52.22;92865.41;5049798;28;20703;-78
2023/01/18 07:38:59;;;;;;;11.63;1.85;;;;;;;15.10;52.19;92827.22;5066382;28;20196;-82
2023/01/18 07:41:26;;;;;;;4.15;1.02;;;;;;;15.11;52.04;92851.38;5052613;28;20582;-79
2023/01/18 07:43:54;;;;;;;2.17;0.85;;;;;;;15.08;52.27;92895.03;5065504;28;20272;-84
2023/01/18 07:46:24;;;;;;;3.80;0.80;;;;;;;15.14;51.80;92888.00;5065265;28;20206;-75
2023/01/18 07:48:52;;;;;;;2.50;0.70;;;;;;;15.20;51.77;92924.56;5032135;28;20560;-80
2023/01/18 07:51:21;;;;;;;5.60;0.90;;;;;;;15.18;51.94;92888.72;5047749;28;20199;-77
2023/01/18 07:53:48;;;;;;;8.40;1.08;;;;;;;15.22;51.65;92949.50;5063969;28;20294;-84
2023/01/18 07:56:16;;;;;;;7.20;1.10;;;;;;;15.23;51.93;92885.59;5057987;28;20224;-79
2023/01/18 07:58:44;;;;;;;8.45;1.20;;;;;;;15.30;51.52;92931.94;5068502;28;20260;-80
2023/01/18 08:01:13;;;;;;;4.95;1.20;;;;;;;15.29;52.11;92961.16;5062886;28;20243;-82
2023/01/18 08:03:43;;;;;;;4.40;1.15;;;;;;;15.35;51.95;92958.78;5063899;28;20317;-80
2023/01/18 08:06:12;;;;;;;6.00;0.88;;;;;;;15.36;51.66;93009.44;5056153;28;20191;-81
2023/01/18 08:08:39;;;;;;;4.45;0.93;;;;;;;15.35;51.85;92996.19;5061016;28;20196;-80
2023/01/18 08:11:07;;;;;;;8.13;1.40;;;;;;;15.41;51.73;92995.41;5065934;28;20211;-78
2023/01/18 08:13:33;;;;;;;1.48;0.68;;;;;;;15.47;51.56;93023.81;5063731;28;20222;-81
2023/01/18 08:16:02;;;;;;;5.32;1.00;;;;;;;15.49;51.56;93026.91;5052963;28;20239;-79
2023/01/18 08:18:29;;;;;;;6.10;1.13;;;;;;;15.49;51.52;93028.88;5063940;28;20261;-79
2023/01/18 08:20:57;;;;;;;6.68;1.20;;;;;;;15.60;52.21;93043.25;5058660;28;20215;-80
2023/01/18 08:23:24;;;;;;;4.53;1.00;;;;;;;15.67;51.43;93043.25;5059368;28;20261;-79
2023/01/18 08:25:51;;;;;;;5.55;2.03;;;;;;;15.56;51.69;93021.47;5051369;28;20192;-80
2023/01/18 08:28:19;;;;;;;6.15;1.70;;;;;;;15.40;52.16;93059.31;5052541;28;20253;-85
2023/01/18 08:30:47;;;;;;;5.28;0.98;;;;;;;15.39;52.36;93044.13;5072862;28;20211;-83
2023/01/18 08:33:15;;;;;;;1.10;0.70;;;;;;;15.30;52.86;93054.69;5071118;28;20207;-83
2023/01/18 08:35:43;;;;;;;4.85;0.90;;;;;;;15.29;52.47;93047.69;5057887;28;20235;-82
2023/01/18 08:38:13;;;;;;;6.00;0.80;;;;;;;15.39;52.24;93038.66;5060018;28;20215;-84
2023/01/18 08:40:40;;;;;;;3.50;1.10;;;;;;;15.26;52.79;93040.28;5072376;28;20264;-78
2023/01/18 08:43:10;;;;;;;6.63;0.80;;;;;;;15.27;52.83;92940.91;5060009;28;20216;-80
2023/01/18 08:45:37;;;;;;;9.55;1.35;;;;;;;15.33;52.87;93006.72;5065636;28;20566;-81
2023/01/18 08:48:06;;;;;;;3.60;1.33;;;;;;;15.36;52.90;93003.22;5064900;28;20203;-80
2023/01/18 08:50:34;;;;;;;2.30;0.93;;;;;;;15.43;53.08;92984.88;5044137;28;20212;-81
2023/01/18 08:53:01;;;;;;;3.80;0.90;;;;;;;15.44;52.55;92988.38;5061879;28;20191;-78
2023/01/18 08:55:30;;;;;;;6.97;1.08;;;;;;;15.42;52.40;93001.63;5060856;28;20238;-81
2023/01/18 08:57:58;;;;;;;4.82;1.08;;;;;;;15.44;52.85;93021.91;5069167;28;20207;-78
2023/01/18 09:00:27;;;;;;;2.88;0.90;;;;;;;15.48;52.37;93039.00;5061939;28;20203;-78
2023/01/18 09:02:54;;;;;;;4.07;1.10;;;;;;;15.44;52.67;93021.91;5057249;28;20231;-79
2023/01/18 09:05:21;;;;;;;4.88;0.90;;;;;;;15.46;52.45;93014.06;5062400;28;20203;-81
2023/01/18 09:07:49;;;;;;;8.45;1.17;;;;;;;15.44;52.39;93041.00;5072876;28;20214;-80
2023/01/18 09:10:17;;;;;;;4.25;1.10;;;;;;;15.49;52.34;93061.63;5062343;28;20708;-77
2023/01/18 09:12:45;;;;;;;10.85;1.08;;;;;;;15.52;52.72;93050.69;5051612;28;20738;-80
2023/01/18 09:15:17;;;;;;;4.82;1.10;;;;;;;15.55;52.37;93054.63;5040702;28;20594;-81
2023/01/18 09:17:43;;;;;;;4.82;1.02;;;;;;;15.45;52.44;93072.53;5041736;28;20248;-85
2023/01/18 09:20:13;;;;;;;3.33;0.82;;;;;;;15.49;52.47;93102.56;5059505;28;20270;-81
2023/01/18 09:22:41;;;;;;;7.82;0.88;;;;;;;15.52;52.28;93077.22;5064305;28;20195;-81
2023/01/18 09:25:10;;;;;;;5.07;0.90;;;;;;;15.46;52.34;93085.00;5065299;28;20199;-84
2023/01/18 09:27:37;;;;;;;4.85;1.15;;;;;;;15.51;52.43;93086.56;5071410;28;20234;-81
2023/01/18 09:30:08;;;;;;;5.55;0.98;;;;;;;15.57;52.43;93083.06;5057643;28;20204;-81
2023/01/18 09:32:35;;;;;;;4.43;1.77;;;;;;;15.53;52.26;93095.91;5058895;28;20706;-83
2023/01/18 09:35:02;;;;;;;2.75;1.20;;;;;;;15.54;52.68;93104.88;5057743;28;20281;-88
2023/01/18 09:37:31;;;;;;;4.47;1.25;;;;;;;15.70;52.20;93099.00;5072779;28;20202;-79
2023/01/18 09:39:59;;;;;;;2.33;0.82;;;;;;;15.56;52.26;93111.53;5069623;28;20207;-85
2023/01/18 09:42:35;;;;;;;6.15;0.93;;;;;;;15.66;52.02;93103.69;5042320;28;20322;-79
2023/01/18 09:45:02;;;;;;;4.07;0.98;;;;;;;15.66;51.90;93109.94;5060774;28;20207;-83
2023/01/18 09:47:33;;;;;;;5.13;1.80;;;;;;;15.66;52.17;93092.78;5061636;28;20209;-79
2023/01/18 09:50:01;;;;;;;10.35;1.52;;;;;;;15.77;51.74;93118.06;5053640;28;20241;-81
2023/01/18 09:52:37;;;;;;;6.32;1.10;;;;;;;15.71;52.17;93079.50;5062262;28;20690;-81
2023/01/18 09:55:16;;;;;;;5.35;1.23;;;;;;;15.75;51.89;93112.22;5069916;28;20230;-81
2023/01/18 09:57:55;;;;;;;5.45;1.60;;;;;;;15.79;51.46;93091.16;5066834;28;20263;-85
2023/01/18 10:00:24;;;;;;;7.57;1.20;;;;;;;15.87;51.42;93103.56;5061308;28;20242;-83
2023/01/18 10:02:59;;;;;;;10.52;1.13;;;;;;;15.90;51.28;93091.88;5053719;28;20239;-78
2023/01/18 10:05:30;;;;;;;5.28;0.93;;;;;;;15.95;50.85;93094.19;5059587;28;20207;-87
2023/01/18 10:08:06;;;;;;;6.72;1.10;;;;;;;15.96;50.38;93084.81;5064193;28;20215;-82
2023/01/18 10:10:37;;;;;;;7.60;0.90;;;;;;;15.95;50.73;93055.97;5063636;28;20595;-82
2023/01/18 10:13:21;;;;;;;2.78;1.00;;;;;;;15.88;50.44;93075.09;5043961;28;20230;-79
2023/01/18 10:15:49;;;;;;;2.85;1.10;;;;;;;15.84;51.41;93101.66;5053357;28;20239;-81
2023/01/18 10:18:18;;;;;;;5.47;1.13;;;;;;;15.79;50.18;93059.16;5059464;28;20565;-82
2023/01/18 10:20:49;;;;;;;5.13;1.17;;;;;;;15.84;50.31;93071.63;5049972;28;20625;-81
2023/01/18 10:23:24;;;;;;;3.25;0.90;;;;;;;15.87;50.45;93092.66;5050924;28;20532;-78
2023/01/18 10:25:55;;;;;;;4.07;0.85;;;;;;;15.87;50.11;93054.44;5056216;28;20584;-81
2023/01/18 10:28:38;;;;;;;2.92;0.90;;;;;;;15.85;50.36;93073.19;5057899;28;20203;-78
2023/01/18 10:31:23;;;;;;;3.97;1.17;;;;;;;15.86;49.95;93052.88;5045796;28;20294;-82
2023/01/18 10:33:55;;;;;;;5.28;1.27;;;;;;;15.94;49.79;93103.56;5052324;28;20200;-78
2023/01/18 10:36:29;;;;;;;4.45;0.90;;;;;;;15.86;50.21;93070.03;5038406;28;20572;-77
2023/01/18 10:38:56;;;;;;;5.50;1.40;;;;;;;15.78;50.40;93114.16;5062735;28;20213;-84
2023/01/18 10:41:28;;;;;;;4.25;1.35;;;;;;;15.88;50.58;93116.06;5062938;28;20569;-81
2023/01/18 10:43:55;;;;;;;6.55;1.73;;;;;;;15.97;50.09;93154.66;5063248;28;20203;-83
2023/01/18 10:46:22;;;;;;;6.60;1.40;;;;;;;15.96;49.62;93139.44;5050235;28;20238;-78
2023/01/18 10:48:50;;;;;;;3.65;1.00;;;;;;;15.92;50.08;93155.06;5056996;28;20217;-81
2023/01/18 10:51:30;;;;;;;10.38;1.50;;;;;;;16.00;49.95;93164.75;5058466;28;20997;-85
2023/01/18 10:53:57;;;;;;;8.82;1.25;;;;;;;16.06;50.17;93140.56;5062967;28;20262;-82
2023/01/18 10:56:26;;;;;;;5.47;0.90;;;;;;;16.16;49.80;93151.44;5066184;28;20318;-81
2023/01/18 10:58:57;;;;;;;5.03;1.42;;;;;;;16.04;49.38;93146.41;5053997;28;20195;-81
2023/01/18 11:01:27;;;;;;;3.97;0.70;;;;;;;15.98;49.88;93148.03;5057357;28;20290;-76
2023/01/18 11:03:56;;;;;;;6.90;1.17;;;;;;;16.04;49.69;93156.56;5059531;28;20796;-80
2023/01/18 11:06:25;;;;;;;8.80;1.08;;;;;;;15.97;49.56;93173.78;5064227;28;20210;-80
2023/01/18 11:08:55;;;;;;;6.30;1.27;;;;;;;15.97;49.51;93119.16;5051018;28;20203;-77
2023/01/18 11:14:25;;;;;;;4.10;0.80;;;;;;;16.01;50.42;93152.66;5053761;28;20677;-84
2023/01/18 11:17:09;;;;;;;7.70;1.70;;;;;;;16.03;49.77;93150.31;5060996;28;20246;-83
2023/01/18 11:19:36;;;;;;;7.05;1.40;;;;;;;15.95;49.75;93140.63;5044935;28;20244;-83
2023/01/18 11:22:11;;;;;;;7.47;1.20;;;;;;;15.99;49.53;93138.63;5054788;28;20212;-83
2023/01/18 11:24:40;;;;;;;7.78;1.45;;;;;;;16.06;49.29;93124.94;5051548;28;20286;-89
2023/01/18 11:27:13;;;;;;;7.32;1.15;;;;;;;15.95;49.67;93111.34;5063274;28;20241;-82
2023/01/18 11:29:44;;;;;;;5.25;1.63;;;;;;;15.94;49.71;93114.47;5059913;28;20198;-83
2023/01/18 11:32:20;;;;;;;5.43;1.50;;;;;;;15.96;49.45;93131.25;5052342;28;20238;-84
2023/01/18 11:34:50;;;;;;;7.88;1.38;;;;;;;16.00;49.71;93123.81;5061084;28;20198;-86
2023/01/18 11:37:33;;;;;;;6.15;1.45;;;;;;;16.02;48.94;93118.72;5054793;28;20230;-85
2023/01/18 11:40:25;;;;;;;6.65;1.13;;;;;;;16.12;48.28;93115.16;5055735;28;20238;-79
2023/01/18 11:42:58;;;;;;;3.65;0.98;;;;;;;16.22;48.73;93138.91;5057158;28;20199;-84
2023/01/18 11:45:30;;;;;;;3.67;0.75;;;;;;;16.07;49.16;93134.69;5062890;28;20246;-81
2023/01/18 11:48:05;;;;;;;3.95;1.30;;;;;;;16.08;49.44;93125.34;5064723;28;20328;-82
2023/01/18 11:50:39;;;;;;;4.13;1.02;;;;;;;16.10;49.06;93139.38;5039650;28;20724;-75
2023/01/18 11:53:19;;;;;;;5.53;1.77;;;;;;;16.05;48.82;93139.00;5051606;28;20603;-79
2023/01/18 11:55:54;;;;;;;8.88;1.60;;;;;;;16.04;48.95;93130.03;5063462;28;20230;-80
2023/01/18 11:58:28;;;;;;;2.45;0.90;;;;;;;16.07;48.86;93156.56;5067387;28;20206;-81
2023/01/18 12:01:09;;;;;;;5.85;1.85;;;;;;;15.99;49.38;93149.56;5057824;28;20207;-83
2023/01/18 12:03:54;;;;;;;6.57;1.23;;;;;;;16.20;49.08;93149.47;5059124;28;20247;-87
2023/01/18 12:06:35;;;;;;;4.63;1.45;;;;;;;16.30;48.79;93137.69;5044511;28;20673;-83
2023/01/18 12:09:14;;;;;;;7.60;1.23;;;;;;;16.25;48.85;93140.84;5044782;28;20207;-78
2023/01/18 12:11:59;;;;;;;6.43;1.20;;;;;;;16.38;48.14;93129.44;5059349;28;20575;-82
2023/01/18 12:14:39;;;;;;;5.72;1.20;;;;;;;16.36;47.91;93124.38;5061804;28;20242;-83
2023/01/18 12:17:22;;;;;;;5.70;1.13;;;;;;;16.25;48.49;93129.91;5035486;28;20335;-80
2023/01/18 12:20:19;;;;;;;4.10;1.20;;;;;;;16.30;48.39;93136.91;5039323;28;20224;-83
2023/01/18 12:23:10;;;;;;;5.57;1.45;;;;;;;16.36;47.99;93157.19;5043740;28;20202;-82